sensor_id;sensor_type;location;lat;lon;timestamp;P1;durP1;ratioP1;P2;durP2;ratioP2
18867;SDS011;9563;49.240;9.088;2023-04-30T05:02:14;14.85;;;8.82;;
18867;SDS011;9563;49.240;9.088;2023-04-30T05:04:41;12.77;;;8.65;;
18867;SDS011;9563;49.240;9.088;2023-04-30T05:07:08;15.57;;;9.02;;
18867;SDS011;9563;49.240;9.088;2023-04-30T05:09:34;14.52;;;8.68;;
18867;SDS011;9563;49.240;9.088;2023-04-30T05:12:02;13.82;;;8.63;;
18867;SDS011;9563;49.240;9.088;2023-04-30T05:14:29;13.52;;;8.75;;
18867;SDS011;9563;49.240;9.088;2023-04-30T05:16:56;13.73;;;8.77;;
18867;SDS011;9563;49.240;9.088;2023-04-30T05:19:24;13.77;;;9.13;;
18867;SDS011;9563;49.240;9.088;2023-04-30T05:21:51;13.02;;;8.60;;
18867;SDS011;9563;49.240;9.088;2023-04-30T05:24:17;13.63;;;8.38;;
18867;SDS011;9563;49.240;9.088;2023-04-30T05:26:44;14.55;;;8.80;;
18867;SDS011;9563;49.240;9.088;2023-04-30T05:29:11;15.23;;;9.23;;
18867;SDS011;9563;49.240;9.088;2023-04-30T05:31:38;13.20;;;8.20;;
18867;SDS011;9563;49.240;9.088;2023-04-30T05:34:05;12.20;;;8.98;;
18867;SDS011;9563;49.240;9.088;2023-04-30T05:36:34;14.05;;;8.63;;
18867;SDS011;9563;49.240;9.088;2023-04-30T05:39:00;15.68;;;8.43;;
18867;SDS011;9563;49.240;9.088;2023-04-30T05:41:28;17.90;;;8.30;;
18867;SDS011;9563;49.240;9.088;2023-04-30T05:43:55;16.02;;;9.65;;
18867;SDS011;9563;49.240;9.088;2023-04-30T05:46:22;12.75;;;8.82;;
18867;SDS011;9563;49.240;9.088;2023-04-30T05:48:48;14.43;;;8.38;;
18867;SDS011;9563;49.240;9.088;2023-04-30T05:51:15;12.85;;;8.38;;
18867;SDS011;9563;49.240;9.088;2023-04-30T05:53:43;17.23;;;8.60;;
18867;SDS011;9563;49.240;9.088;2023-04-30T05:56:10;14.98;;;8.75;;
18867;SDS011;9563;49.240;9.088;2023-04-30T05:58:37;12.98;;;8.52;;
18867;SDS011;9563;49.240;9.088;2023-04-30T06:01:04;15.00;;;8.75;;
18867;SDS011;9563;49.240;9.088;2023-04-30T06:03:34;14.98;;;8.80;;
18867;SDS011;9563;49.240;9.088;2023-04-30T06:06:01;11.57;;;7.88;;
18867;SDS011;9563;49.240;9.088;2023-04-30T06:08:28;12.43;;;8.07;;
18867;SDS011;9563;49.240;9.088;2023-04-30T06:10:57;12.65;;;8.98;;
18867;SDS011;9563;49.240;9.088;2023-04-30T06:13:24;15.40;;;8.65;;
18867;SDS011;9563;49.240;9.088;2023-04-30T06:15:51;13.95;;;9.25;;
18867;SDS011;9563;49.240;9.088;2023-04-30T06:18:18;14.77;;;8.90;;
18867;SDS011;9563;49.240;9.088;2023-04-30T06:20:45;14.98;;;8.93;;
18867;SDS011;9563;49.240;9.088;2023-04-30T06:23:11;17.73;;;8.35;;
18867;SDS011;9563;49.240;9.088;2023-04-30T06:25:38;16.08;;;8.65;;
18867;SDS011;9563;49.240;9.088;2023-04-30T06:28:06;16.08;;;9.38;;
18867;SDS011;9563;49.240;9.088;2023-04-30T06:30:34;15.23;;;8.43;;
18867;SDS011;9563;49.240;9.088;2023-04-30T06:33:01;12.48;;;8.18;;
18867;SDS011;9563;49.240;9.088;2023-04-30T06:35:28;14.55;;;8.60;;
18867;SDS011;9563;49.240;9.088;2023-04-30T06:37:55;12.48;;;8.25;;
18867;SDS011;9563;49.240;9.088;2023-04-30T06:40:22;14.10;;;8.65;;
18867;SDS011;9563;49.240;9.088;2023-04-30T06:42:49;14.60;;;8.27;;
18867;SDS011;9563;49.240;9.088;2023-04-30T06:45:17;18.52;;;9.43;;
18867;SDS011;9563;49.240;9.088;2023-04-30T06:47:44;11.38;;;8.70;;
18867;SDS011;9563;49.240;9.088;2023-04-30T06:50:11;16.70;;;8.05;;
18867;SDS011;9563;49.240;9.088;2023-04-30T06:52:39;15.40;;;8.18;;
18867;SDS011;9563;49.240;9.088;2023-04-30T06:55:06;13.48;;;8.90;;
18867;SDS011;9563;49.240;9.088;2023-04-30T06:57:33;13.82;;;9.05;;
18867;SDS011;9563;49.240;9.088;2023-04-30T07:00:02;15.25;;;8.13;;
18867;SDS011;9563;49.240;9.088;2023-04-30T07:02:31;15.48;;;9.23;;
18867;SDS011;9563;49.240;9.088;2023-04-30T07:04:57;19.05;;;9.55;;
18867;SDS011;9563;49.240;9.088;2023-04-30T07:07:24;14.43;;;8.88;;
18867;SDS011;9563;49.240;9.088;2023-04-30T07:09:51;14.20;;;8.15;;
18867;SDS011;9563;49.240;9.088;2023-04-30T07:12:18;15.60;;;9.05;;
18867;SDS011;9563;49.240;9.088;2023-04-30T07:14:46;13.52;;;8.60;;
18867;SDS011;9563;49.240;9.088;2023-04-30T07:17:13;14.02;;;9.10;;
18867;SDS011;9563;49.240;9.088;2023-04-30T07:19:41;15.88;;;9.50;;
18867;SDS011;9563;49.240;9.088;2023-04-30T07:22:08;11.85;;;8.23;;
18867;SDS011;9563;49.240;9.088;2023-04-30T07:24:35;11.50;;;8.02;;
18867;SDS011;9563;49.240;9.088;2023-04-30T07:27:02;15.65;;;8.55;;
18867;SDS011;9563;49.240;9.088;2023-04-30T07:29:31;13.73;;;8.43;;
18867;SDS011;9563;49.240;9.088;2023-04-30T07:31:58;16.85;;;8.27;;
18867;SDS011;9563;49.240;9.088;2023-04-30T07:34:25;15.40;;;8.00;;
18867;SDS011;9563;49.240;9.088;2023-04-30T07:36:53;10.15;;;7.65;;
18867;SDS011;9563;49.240;9.088;2023-04-30T07:39:20;16.73;;;7.85;;
18867;SDS011;9563;49.240;9.088;2023-04-30T07:41:47;14.48;;;7.90;;
18867;SDS011;9563;49.240;9.088;2023-04-30T07:44:14;16.67;;;8.10;;
18867;SDS011;9563;49.240;9.088;2023-04-30T07:46:40;12.02;;;7.93;;
18867;SDS011;9563;49.240;9.088;2023-04-30T07:49:07;11.43;;;6.90;;
18867;SDS011;9563;49.240;9.088;2023-04-30T07:51:34;9.63;;;6.97;;
18867;SDS011;9563;49.240;9.088;2023-04-30T07:54:02;13.55;;;7.80;;
18867;SDS011;9563;49.240;9.088;2023-04-30T07:56:30;10.63;;;7.07;;
18867;SDS011;9563;49.240;9.088;2023-04-30T07:58:56;12.85;;;7.35;;
18867;SDS011;9563;49.240;9.088;2023-04-30T08:01:23;11.13;;;6.82;;
18867;SDS011;9563;49.240;9.088;2023-04-30T08:03:50;12.55;;;7.63;;
18867;SDS011;9563;49.240;9.088;2023-04-30T08:06:17;11.25;;;7.30;;
18867;SDS011;9563;49.240;9.088;2023-04-30T08:08:44;10.85;;;7.13;;
18867;SDS011;9563;49.240;9.088;2023-04-30T08:11:13;14.48;;;6.50;;
18867;SDS011;9563;49.240;9.088;2023-04-30T08:13:40;10.23;;;6.90;;
18867;SDS011;9563;49.240;9.088;2023-04-30T08:16:07;10.60;;;7.00;;
18867;SDS011;9563;49.240;9.088;2023-04-30T08:18:34;12.85;;;6.43;;
18867;SDS011;9563;49.240;9.088;2023-04-30T08:21:02;9.07;;;6.22;;
18867;SDS011;9563;49.240;9.088;2023-04-30T08:23:30;11.70;;;6.97;;
18867;SDS011;9563;49.240;9.088;2023-04-30T08:25:57;9.93;;;6.70;;
18867;SDS011;9563;49.240;9.088;2023-04-30T08:28:26;9.57;;;6.03;;
18867;SDS011;9563;49.240;9.088;2023-04-30T08:30:52;11.77;;;6.82;;
18867;SDS011;9563;49.240;9.088;2023-04-30T08:33:19;10.68;;;6.75;;
18867;SDS011;9563;49.240;9.088;2023-04-30T08:35:46;8.73;;;5.50;;
18867;SDS011;9563;49.240;9.088;2023-04-30T08:38:13;8.55;;;5.82;;
18867;SDS011;9563;49.240;9.088;2023-04-30T08:40:40;10.98;;;6.45;;
18867;SDS011;9563;49.240;9.088;2023-04-30T08:43:12;12.40;;;6.18;;
18867;SDS011;9563;49.240;9.088;2023-04-30T08:45:42;10.60;;;5.95;;
18867;SDS011;9563;49.240;9.088;2023-04-30T08:48:09;9.60;;;5.50;;
18867;SDS011;9563;49.240;9.088;2023-04-30T08:50:38;11.20;;;5.40;;
18867;SDS011;9563;49.240;9.088;2023-04-30T08:53:05;10.20;;;6.32;;
18867;SDS011;9563;49.240;9.088;2023-04-30T08:55:33;8.82;;;4.95;;
18867;SDS011;9563;49.240;9.088;2023-04-30T08:58:00;6.97;;;4.88;;
18867;SDS011;9563;49.240;9.088;2023-04-30T09:00:29;8.38;;;4.57;;
18867;SDS011;9563;49.240;9.088;2023-04-30T09:03:00;6.72;;;5.00;;
18867;SDS011;9563;49.240;9.088;2023-04-30T09:05:27;6.53;;;4.70;;
18867;SDS011;9563;49.240;9.088;2023-04-30T09:07:55;15.23;;;10.05;;
18867;SDS011;9563;49.240;9.088;2023-04-30T09:10:22;11.68;;;7.03;;
18867;SDS011;9563;49.240;9.088;2023-04-30T09:12:59;10.05;;;6.13;;
18867;SDS011;9563;49.240;9.088;2023-04-30T09:15:26;9.57;;;6.07;;
18867;SDS011;9563;49.240;9.088;2023-04-30T09:18:09;10.77;;;5.15;;
18867;SDS011;9563;49.240;9.088;2023-04-30T09:20:37;6.40;;;4.40;;
18867;SDS011;9563;49.240;9.088;2023-04-30T09:23:18;10.68;;;5.88;;
18867;SDS011;9563;49.240;9.088;2023-04-30T09:25:45;7.45;;;4.82;;
18867;SDS011;9563;49.240;9.088;2023-04-30T09:28:12;10.50;;;6.22;;
18867;SDS011;9563;49.240;9.088;2023-04-30T09:30:39;6.80;;;5.20;;
18867;SDS011;9563;49.240;9.088;2023-04-30T09:33:09;8.95;;;5.00;;
18867;SDS011;9563;49.240;9.088;2023-04-30T09:35:37;4.80;;;3.80;;
18867;SDS011;9563;49.240;9.088;2023-04-30T09:38:05;7.35;;;4.22;;
18867;SDS011;9563;49.240;9.088;2023-04-30T09:40:34;9.45;;;5.13;;
18867;SDS011;9563;49.240;9.088;2023-04-30T09:43:01;8.75;;;4.68;;
18867;SDS011;9563;49.240;9.088;2023-04-30T09:45:38;6.90;;;4.05;;
18867;SDS011;9563;49.240;9.088;2023-04-30T09:48:08;16.17;;;5.55;;
18867;SDS011;9563;49.240;9.088;2023-04-30T09:50:37;8.82;;;5.40;;
18867;SDS011;9563;49.240;9.088;2023-04-30T09:53:05;11.20;;;4.65;;
18867;SDS011;9563;49.240;9.088;2023-04-30T09:55:33;4.88;;;3.45;;
18867;SDS011;9563;49.240;9.088;2023-04-30T09:58:01;7.18;;;3.33;;
18867;SDS011;9563;49.240;9.088;2023-04-30T10:00:30;6.00;;;3.30;;
18867;SDS011;9563;49.240;9.088;2023-04-30T10:02:59;5.53;;;3.30;;
18867;SDS011;9563;49.240;9.088;2023-04-30T10:05:32;7.40;;;3.78;;
18867;SDS011;9563;49.240;9.088;2023-04-30T10:08:03;6.18;;;3.83;;
18867;SDS011;9563;49.240;9.088;2023-04-30T10:10:32;3.25;;;2.78;;
18867;SDS011;9563;49.240;9.088;2023-04-30T10:13:02;6.75;;;3.40;;
18867;SDS011;9563;49.240;9.088;2023-04-30T10:15:34;6.97;;;3.42;;
18867;SDS011;9563;49.240;9.088;2023-04-30T10:18:04;5.68;;;3.70;;
18867;SDS011;9563;49.240;9.088;2023-04-30T10:20:35;8.18;;;3.67;;
18867;SDS011;9563;49.240;9.088;2023-04-30T10:23:03;5.88;;;3.28;;
18867;SDS011;9563;49.240;9.088;2023-04-30T10:25:32;3.40;;;2.53;;
18867;SDS011;9563;49.240;9.088;2023-04-30T10:27:59;5.55;;;3.00;;
18867;SDS011;9563;49.240;9.088;2023-04-30T10:30:26;4.68;;;3.20;;
18867;SDS011;9563;49.240;9.088;2023-04-30T10:32:56;4.75;;;3.50;;
18867;SDS011;9563;49.240;9.088;2023-04-30T10:35:32;7.88;;;4.00;;
18867;SDS011;9563;49.240;9.088;2023-04-30T10:38:09;4.85;;;3.85;;
18867;SDS011;9563;49.240;9.088;2023-04-30T10:40:44;5.78;;;3.70;;
18867;SDS011;9563;49.240;9.088;2023-04-30T10:43:12;6.55;;;3.60;;
18867;SDS011;9563;49.240;9.088;2023-04-30T10:45:40;4.97;;;3.38;;
18867;SDS011;9563;49.240;9.088;2023-04-30T10:48:08;10.15;;;4.32;;
18867;SDS011;9563;49.240;9.088;2023-04-30T10:50:40;7.22;;;3.38;;
18867;SDS011;9563;49.240;9.088;2023-04-30T10:53:11;5.22;;;3.20;;
18867;SDS011;9563;49.240;9.088;2023-04-30T10:55:44;5.03;;;3.30;;
18867;SDS011;9563;49.240;9.088;2023-04-30T10:58:23;8.02;;;3.65;;
18867;SDS011;9563;49.240;9.088;2023-04-30T11:00:58;6.57;;;4.15;;
18867;SDS011;9563;49.240;9.088;2023-04-30T11:03:27;4.97;;;3.38;;
18867;SDS011;9563;49.240;9.088;2023-04-30T11:05:56;4.68;;;3.33;;
18867;SDS011;9563;49.240;9.088;2023-04-30T11:08:33;7.55;;;3.85;;
18867;SDS011;9563;49.240;9.088;2023-04-30T11:11:01;5.82;;;3.63;;
18867;SDS011;9563;49.240;9.088;2023-04-30T11:13:37;4.60;;;3.13;;
18867;SDS011;9563;49.240;9.088;2023-04-30T11:16:06;6.82;;;3.40;;
18867;SDS011;9563;49.240;9.088;2023-04-30T11:18:33;4.90;;;2.90;;
18867;SDS011;9563;49.240;9.088;2023-04-30T11:21:01;5.18;;;2.78;;
18867;SDS011;9563;49.240;9.088;2023-04-30T11:23:29;6.68;;;3.00;;
18867;SDS011;9563;49.240;9.088;2023-04-30T11:25:59;4.68;;;3.25;;
18867;SDS011;9563;49.240;9.088;2023-04-30T11:28:27;4.78;;;3.33;;
18867;SDS011;9563;49.240;9.088;2023-04-30T11:30:55;4.63;;;3.13;;
18867;SDS011;9563;49.240;9.088;2023-04-30T11:33:23;4.18;;;2.90;;
18867;SDS011;9563;49.240;9.088;2023-04-30T11:35:52;4.85;;;2.70;;
18867;SDS011;9563;49.240;9.088;2023-04-30T11:38:23;4.60;;;2.70;;
18867;SDS011;9563;49.240;9.088;2023-04-30T11:40:52;6.45;;;2.85;;
18867;SDS011;9563;49.240;9.088;2023-04-30T11:43:20;10.90;;;3.05;;
18867;SDS011;9563;49.240;9.088;2023-04-30T11:45:57;4.28;;;2.90;;
18867;SDS011;9563;49.240;9.088;2023-04-30T11:48:31;3.17;;;2.47;;
18867;SDS011;9563;49.240;9.088;2023-04-30T11:51:01;5.28;;;2.90;;
18867;SDS011;9563;49.240;9.088;2023-04-30T11:53:32;4.82;;;2.50;;
18867;SDS011;9563;49.240;9.088;2023-04-30T11:56:02;6.22;;;3.33;;
18867;SDS011;9563;49.240;9.088;2023-04-30T11:58:33;4.88;;;3.40;;
18867;SDS011;9563;49.240;9.088;2023-04-30T12:01:02;5.03;;;2.80;;
18867;SDS011;9563;49.240;9.088;2023-04-30T12:03:31;5.55;;;2.67;;
18867;SDS011;9563;49.240;9.088;2023-04-30T12:05:58;5.05;;;3.10;;
18867;SDS011;9563;49.240;9.088;2023-04-30T12:08:25;4.68;;;2.90;;
18867;SDS011;9563;49.240;9.088;2023-04-30T12:10:54;6.13;;;2.85;;
18867;SDS011;9563;49.240;9.088;2023-04-30T12:13:21;4.32;;;2.38;;
18867;SDS011;9563;49.240;9.088;2023-04-30T12:15:57;5.05;;;2.90;;
18867;SDS011;9563;49.240;9.088;2023-04-30T12:18:24;4.03;;;2.80;;
18867;SDS011;9563;49.240;9.088;2023-04-30T12:20:52;6.22;;;3.08;;
18867;SDS011;9563;49.240;9.088;2023-04-30T12:23:19;5.95;;;2.90;;
18867;SDS011;9563;49.240;9.088;2023-04-30T12:25:46;3.45;;;2.60;;
18867;SDS011;9563;49.240;9.088;2023-04-30T12:28:14;3.17;;;2.55;;
18867;SDS011;9563;49.240;9.088;2023-04-30T12:30:42;5.90;;;2.95;;
18867;SDS011;9563;49.240;9.088;2023-04-30T12:33:10;4.50;;;2.65;;
18867;SDS011;9563;49.240;9.088;2023-04-30T12:35:40;5.75;;;3.00;;
18867;SDS011;9563;49.240;9.088;2023-04-30T12:38:08;3.72;;;2.42;;
18867;SDS011;9563;49.240;9.088;2023-04-30T12:40:35;3.97;;;2.45;;
18867;SDS011;9563;49.240;9.088;2023-04-30T12:43:02;3.72;;;2.65;;
18867;SDS011;9563;49.240;9.088;2023-04-30T12:45:46;3.90;;;2.90;;
18867;SDS011;9563;49.240;9.088;2023-04-30T12:48:16;3.67;;;2.50;;
18867;SDS011;9563;49.240;9.088;2023-04-30T12:50:52;5.70;;;2.50;;
18867;SDS011;9563;49.240;9.088;2023-04-30T12:53:20;5.05;;;2.60;;
18867;SDS011;9563;49.240;9.088;2023-04-30T12:58:39;3.10;;;2.45;;
18867;SDS011;9563;49.240;9.088;2023-04-30T13:01:10;5.00;;;2.50;;
18867;SDS011;9563;49.240;9.088;2023-04-30T13:03:39;4.72;;;2.15;;
18867;SDS011;9563;49.240;9.088;2023-04-30T13:06:06;4.68;;;2.75;;
18867;SDS011;9563;49.240;9.088;2023-04-30T13:08:34;6.35;;;2.63;;
18867;SDS011;9563;49.240;9.088;2023-04-30T13:11:01;3.22;;;2.38;;
18867;SDS011;9563;49.240;9.088;2023-04-30T13:13:28;4.45;;;2.70;;
18867;SDS011;9563;49.240;9.088;2023-04-30T13:15:56;5.85;;;2.40;;
18867;SDS011;9563;49.240;9.088;2023-04-30T13:18:24;4.07;;;2.50;;
18867;SDS011;9563;49.240;9.088;2023-04-30T13:20:51;4.85;;;2.92;;
18867;SDS011;9563;49.240;9.088;2023-04-30T13:23:18;7.15;;;3.00;;
18867;SDS011;9563;49.240;9.088;2023-04-30T13:25:45;3.90;;;2.58;;
18867;SDS011;9563;49.240;9.088;2023-04-30T13:28:12;3.85;;;2.60;;
18867;SDS011;9563;49.240;9.088;2023-04-30T13:30:38;3.78;;;2.70;;
18867;SDS011;9563;49.240;9.088;2023-04-30T13:33:06;5.57;;;2.45;;
18867;SDS011;9563;49.240;9.088;2023-04-30T13:35:34;4.97;;;2.60;;
18867;SDS011;9563;49.240;9.088;2023-04-30T13:38:01;3.55;;;2.53;;
18867;SDS011;9563;49.240;9.088;2023-04-30T13:40:27;3.70;;;2.53;;
18867;SDS011;9563;49.240;9.088;2023-04-30T13:42:54;3.88;;;2.83;;
18867;SDS011;9563;49.240;9.088;2023-04-30T13:45:21;5.03;;;2.97;;
18867;SDS011;9563;49.240;9.088;2023-04-30T13:47:48;2.30;;;2.10;;
18867;SDS011;9563;49.240;9.088;2023-04-30T13:50:15;4.38;;;2.20;;
18867;SDS011;9563;49.240;9.088;2023-04-30T13:52:43;8.75;;;4.05;;
18867;SDS011;9563;49.240;9.088;2023-04-30T13:55:10;4.90;;;3.13;;
18867;SDS011;9563;49.240;9.088;2023-04-30T13:57:37;4.90;;;2.70;;
18867;SDS011;9563;49.240;9.088;2023-04-30T14:00:05;3.53;;;2.50;;
18867;SDS011;9563;49.240;9.088;2023-04-30T14:02:33;3.08;;;2.45;;
18867;SDS011;9563;49.240;9.088;2023-04-30T14:05:00;3.50;;;2.40;;
18867;SDS011;9563;49.240;9.088;2023-04-30T14:07:28;4.13;;;2.42;;
18867;SDS011;9563;49.240;9.088;2023-04-30T14:09:57;2.50;;;1.90;;
18867;SDS011;9563;49.240;9.088;2023-04-30T14:12:24;3.00;;;2.13;;
18867;SDS011;9563;49.240;9.088;2023-04-30T14:14:54;4.20;;;1.85;;
18867;SDS011;9563;49.240;9.088;2023-04-30T14:17:23;6.18;;;2.30;;
18867;SDS011;9563;49.240;9.088;2023-04-30T14:19:50;3.25;;;2.55;;
18867;SDS011;9563;49.240;9.088;2023-04-30T14:22:17;4.05;;;1.92;;
18867;SDS011;9563;49.240;9.088;2023-04-30T14:24:44;2.72;;;2.00;;
18867;SDS011;9563;49.240;9.088;2023-04-30T14:27:12;3.95;;;2.05;;
18867;SDS011;9563;49.240;9.088;2023-04-30T14:29:39;6.63;;;2.00;;
18867;SDS011;9563;49.240;9.088;2023-04-30T14:32:06;4.30;;;2.33;;
18867;SDS011;9563;49.240;9.088;2023-04-30T14:34:33;4.07;;;2.15;;
18867;SDS011;9563;49.240;9.088;2023-04-30T14:37:00;5.18;;;2.35;;
18867;SDS011;9563;49.240;9.088;2023-04-30T14:39:27;2.97;;;2.10;;
18867;SDS011;9563;49.240;9.088;2023-04-30T14:41:54;3.35;;;2.35;;
18867;SDS011;9563;49.240;9.088;2023-04-30T14:44:23;4.13;;;2.33;;
18867;SDS011;9563;49.240;9.088;2023-04-30T14:46:50;5.90;;;2.03;;
18867;SDS011;9563;49.240;9.088;2023-04-30T14:49:17;2.72;;;2.20;;
18867;SDS011;9563;49.240;9.088;2023-04-30T14:51:44;2.45;;;1.90;;
18867;SDS011;9563;49.240;9.088;2023-04-30T14:54:11;5.05;;;1.92;;
18867;SDS011;9563;49.240;9.088;2023-04-30T14:56:37;4.63;;;2.30;;
18867;SDS011;9563;49.240;9.088;2023-04-30T14:59:05;4.50;;;2.30;;
18867;SDS011;9563;49.240;9.088;2023-04-30T15:01:33;4.80;;;2.17;;
18867;SDS011;9563;49.240;9.088;2023-04-30T15:04:00;3.80;;;2.20;;
18867;SDS011;9563;49.240;9.088;2023-04-30T15:06:27;2.38;;;2.17;;
18867;SDS011;9563;49.240;9.088;2023-04-30T15:08:54;4.38;;;2.25;;
18867;SDS011;9563;49.240;9.088;2023-04-30T15:11:21;2.88;;;2.30;;
18867;SDS011;9563;49.240;9.088;2023-04-30T15:13:49;6.85;;;2.22;;
18867;SDS011;9563;49.240;9.088;2023-04-30T15:16:16;2.83;;;2.10;;
18867;SDS011;9563;49.240;9.088;2023-04-30T15:18:44;3.10;;;2.10;;
18867;SDS011;9563;49.240;9.088;2023-04-30T15:21:12;4.60;;;2.15;;
18867;SDS011;9563;49.240;9.088;2023-04-30T15:23:39;5.35;;;2.38;;
18867;SDS011;9563;49.240;9.088;2023-04-30T15:26:06;4.97;;;2.42;;
18867;SDS011;9563;49.240;9.088;2023-04-30T15:28:33;2.80;;;2.30;;
18867;SDS011;9563;49.240;9.088;2023-04-30T15:31:00;3.83;;;2.30;;
18867;SDS011;9563;49.240;9.088;2023-04-30T15:33:30;2.95;;;2.08;;
18867;SDS011;9563;49.240;9.088;2023-04-30T15:35:59;4.05;;;2.28;;
18867;SDS011;9563;49.240;9.088;2023-04-30T15:38:26;2.72;;;2.15;;
18867;SDS011;9563;49.240;9.088;2023-04-30T15:40:53;4.25;;;2.00;;
18867;SDS011;9563;49.240;9.088;2023-04-30T15:43:20;2.78;;;2.10;;
18867;SDS011;9563;49.240;9.088;2023-04-30T15:45:47;5.15;;;1.92;;
18867;SDS011;9563;49.240;9.088;2023-04-30T15:48:14;2.97;;;2.03;;
18867;SDS011;9563;49.240;9.088;2023-04-30T15:50:41;2.97;;;1.90;;
18867;SDS011;9563;49.240;9.088;2023-04-30T15:53:10;3.40;;;2.15;;
18867;SDS011;9563;49.240;9.088;2023-04-30T15:55:37;4.57;;;2.22;;
18867;SDS011;9563;49.240;9.088;2023-04-30T15:58:04;4.85;;;2.47;;
18867;SDS011;9563;49.240;9.088;2023-04-30T16:00:30;3.28;;;2.13;;
18867;SDS011;9563;49.240;9.088;2023-04-30T16:02:58;3.00;;;2.05;;
18867;SDS011;9563;49.240;9.088;2023-04-30T16:05:25;4.05;;;2.30;;
18867;SDS011;9563;49.240;9.088;2023-04-30T16:07:52;2.47;;;1.98;;
18867;SDS011;9563;49.240;9.088;2023-04-30T16:10:21;6.43;;;2.03;;
18867;SDS011;9563;49.240;9.088;2023-04-30T16:12:47;4.43;;;2.20;;
18867;SDS011;9563;49.240;9.088;2023-04-30T16:15:14;2.75;;;1.90;;
18867;SDS011;9563;49.240;9.088;2023-04-30T16:17:41;4.43;;;2.25;;
18867;SDS011;9563;49.240;9.088;2023-04-30T16:20:09;5.13;;;2.03;;
18867;SDS011;9563;49.240;9.088;2023-04-30T16:22:37;5.78;;;2.47;;
18867;SDS011;9563;49.240;9.088;2023-04-30T16:25:04;4.38;;;2.28;;
18867;SDS011;9563;49.240;9.088;2023-04-30T16:27:35;3.10;;;2.33;;
18867;SDS011;9563;49.240;9.088;2023-04-30T16:30:02;2.92;;;2.10;;
18867;SDS011;9563;49.240;9.088;2023-04-30T16:32:30;2.80;;;2.33;;
18867;SDS011;9563;49.240;9.088;2023-04-30T16:34:57;6.43;;;2.28;;
18867;SDS011;9563;49.240;9.088;2023-04-30T16:37:23;3.20;;;2.13;;
18867;SDS011;9563;49.240;9.088;2023-04-30T16:39:50;2.47;;;2.13;;
18867;SDS011;9563;49.240;9.088;2023-04-30T16:42:17;4.00;;;2.33;;
18867;SDS011;9563;49.240;9.088;2023-04-30T16:44:45;4.45;;;2.58;;
18867;SDS011;9563;49.240;9.088;2023-04-30T16:47:12;4.60;;;2.20;;
18867;SDS011;9563;49.240;9.088;2023-04-30T16:49:41;5.53;;;2.47;;
18867;SDS011;9563;49.240;9.088;2023-04-30T16:52:08;4.88;;;2.08;;
18867;SDS011;9563;49.240;9.088;2023-04-30T16:54:35;4.03;;;2.40;;
18867;SDS011;9563;49.240;9.088;2023-04-30T16:57:02;3.20;;;2.45;;
18867;SDS011;9563;49.240;9.088;2023-04-30T16:59:29;3.80;;;2.40;;
18867;SDS011;9563;49.240;9.088;2023-04-30T17:01:57;2.88;;;1.95;;
18867;SDS011;9563;49.240;9.088;2023-04-30T17:04:26;6.57;;;2.60;;
18867;SDS011;9563;49.240;9.088;2023-04-30T17:06:53;5.53;;;3.22;;
18867;SDS011;9563;49.240;9.088;2023-04-30T17:09:21;5.78;;;2.70;;
18867;SDS011;9563;49.240;9.088;2023-04-30T17:11:48;3.75;;;2.67;;
18867;SDS011;9563;49.240;9.088;2023-04-30T17:14:15;14.23;;;5.53;;
18867;SDS011;9563;49.240;9.088;2023-04-30T17:16:41;21.90;;;9.07;;
18867;SDS011;9563;49.240;9.088;2023-04-30T17:19:10;8.18;;;4.25;;
18867;SDS011;9563;49.240;9.088;2023-04-30T17:21:37;11.55;;;5.05;;
18867;SDS011;9563;49.240;9.088;2023-04-30T17:24:04;8.20;;;3.90;;
18867;SDS011;9563;49.240;9.088;2023-04-30T17:26:31;3.90;;;2.80;;
18867;SDS011;9563;49.240;9.088;2023-04-30T17:28:58;4.38;;;3.25;;
18867;SDS011;9563;49.240;9.088;2023-04-30T17:31:28;5.13;;;2.78;;
18867;SDS011;9563;49.240;9.088;2023-04-30T17:33:55;4.05;;;2.45;;
18867;SDS011;9563;49.240;9.088;2023-04-30T17:36:25;6.18;;;2.78;;
18867;SDS011;9563;49.240;9.088;2023-04-30T17:38:52;4.30;;;2.67;;
18867;SDS011;9563;49.240;9.088;2023-04-30T17:41:20;5.97;;;2.53;;
18867;SDS011;9563;49.240;9.088;2023-04-30T17:43:48;4.95;;;2.60;;
18867;SDS011;9563;49.240;9.088;2023-04-30T17:46:15;3.70;;;2.50;;
18867;SDS011;9563;49.240;9.088;2023-04-30T17:48:42;2.40;;;2.15;;
18867;SDS011;9563;49.240;9.088;2023-04-30T17:51:09;3.25;;;2.17;;
18867;SDS011;9563;49.240;9.088;2023-04-30T17:53:38;3.58;;;2.20;;
18867;SDS011;9563;49.240;9.088;2023-04-30T17:56:05;5.15;;;2.90;;
18867;SDS011;9563;49.240;9.088;2023-04-30T17:58:32;5.00;;;2.63;;
18867;SDS011;9563;49.240;9.088;2023-04-30T18:01:00;4.63;;;3.40;;
18867;SDS011;9563;49.240;9.088;2023-04-30T18:03:27;6.05;;;3.47;;
18867;SDS011;9563;49.240;9.088;2023-04-30T18:05:54;7.63;;;3.83;;
18867;SDS011;9563;49.240;9.088;2023-04-30T18:08:21;7.28;;;3.60;;
18867;SDS011;9563;49.240;9.088;2023-04-30T18:10:49;5.07;;;3.10;;
18867;SDS011;9563;49.240;9.088;2023-04-30T18:13:18;7.25;;;4.07;;
18867;SDS011;9563;49.240;9.088;2023-04-30T18:15:45;7.60;;;4.68;;
18867;SDS011;9563;49.240;9.088;2023-04-30T18:18:12;7.65;;;4.35;;
18867;SDS011;9563;49.240;9.088;2023-04-30T18:20:39;8.60;;;4.95;;
18867;SDS011;9563;49.240;9.088;2023-04-30T18:23:06;7.38;;;3.90;;
18867;SDS011;9563;49.240;9.088;2023-04-30T18:25:33;8.38;;;4.43;;
18867;SDS011;9563;49.240;9.088;2023-04-30T18:28:02;8.35;;;4.70;;
18867;SDS011;9563;49.240;9.088;2023-04-30T18:30:30;8.25;;;4.90;;
18867;SDS011;9563;49.240;9.088;2023-04-30T18:32:58;11.18;;;4.80;;
18867;SDS011;9563;49.240;9.088;2023-04-30T18:35:25;8.15;;;4.03;;
18867;SDS011;9563;49.240;9.088;2023-04-30T18:37:52;7.07;;;3.80;;
18867;SDS011;9563;49.240;9.088;2023-04-30T18:40:19;5.65;;;3.20;;
18867;SDS011;9563;49.240;9.088;2023-04-30T18:42:46;3.97;;;2.78;;
18867;SDS011;9563;49.240;9.088;2023-04-30T18:45:15;8.55;;;3.90;;
18867;SDS011;9563;49.240;9.088;2023-04-30T18:47:42;6.43;;;3.10;;
18867;SDS011;9563;49.240;9.088;2023-04-30T18:50:09;6.68;;;3.33;;
18867;SDS011;9563;49.240;9.088;2023-04-30T18:52:41;5.18;;;2.72;;
18867;SDS011;9563;49.240;9.088;2023-04-30T18:55:08;6.55;;;3.08;;
18867;SDS011;9563;49.240;9.088;2023-04-30T18:57:37;4.40;;;3.00;;
18867;SDS011;9563;49.240;9.088;2023-04-30T19:00:05;4.78;;;3.08;;
18867;SDS011;9563;49.240;9.088;2023-04-30T19:02:34;3.75;;;2.78;;
18867;SDS011;9563;49.240;9.088;2023-04-30T19:05:01;6.85;;;3.00;;
18867;SDS011;9563;49.240;9.088;2023-04-30T19:07:28;4.72;;;2.83;;
18867;SDS011;9563;49.240;9.088;2023-04-30T19:09:56;6.82;;;3.22;;
18867;SDS011;9563;49.240;9.088;2023-04-30T19:12:23;6.47;;;3.30;;
18867;SDS011;9563;49.240;9.088;2023-04-30T19:14:50;7.05;;;3.50;;
18867;SDS011;9563;49.240;9.088;2023-04-30T19:17:17;9.05;;;3.67;;
18867;SDS011;9563;49.240;9.088;2023-04-30T19:19:45;7.20;;;3.28;;
18867;SDS011;9563;49.240;9.088;2023-04-30T19:22:13;12.30;;;3.60;;
18867;SDS011;9563;49.240;9.088;2023-04-30T19:24:40;12.60;;;3.97;;
18867;SDS011;9563;49.240;9.088;2023-04-30T19:27:07;6.82;;;3.85;;
18867;SDS011;9563;49.240;9.088;2023-04-30T19:29:35;7.28;;;3.70;;
18867;SDS011;9563;49.240;9.088;2023-04-30T19:32:03;10.10;;;3.90;;
18867;SDS011;9563;49.240;9.088;2023-04-30T19:34:30;8.85;;;4.68;;
18867;SDS011;9563;49.240;9.088;2023-04-30T19:37:00;10.57;;;4.70;;
18867;SDS011;9563;49.240;9.088;2023-04-30T19:39:28;8.65;;;4.05;;
18867;SDS011;9563;49.240;9.088;2023-04-30T19:41:57;12.98;;;4.88;;
18867;SDS011;9563;49.240;9.088;2023-04-30T19:44:25;6.25;;;4.32;;
18867;SDS011;9563;49.240;9.088;2023-04-30T19:46:53;11.73;;;4.25;;
18867;SDS011;9563;49.240;9.088;2023-04-30T19:49:20;7.57;;;3.80;;
18867;SDS011;9563;49.240;9.088;2023-04-30T19:51:47;8.25;;;3.92;;
18867;SDS011;9563;49.240;9.088;2023-04-30T19:54:16;7.13;;;3.55;;
18867;SDS011;9563;49.240;9.088;2023-04-30T19:56:43;5.50;;;3.20;;
18867;SDS011;9563;49.240;9.088;2023-04-30T19:59:10;4.60;;;3.33;;
18867;SDS011;9563;49.240;9.088;2023-04-30T20:01:37;6.13;;;3.47;;
18867;SDS011;9563;49.240;9.088;2023-04-30T20:04:05;5.88;;;2.90;;
18867;SDS011;9563;49.240;9.088;2023-04-30T20:06:32;3.53;;;2.72;;